createdAt,value
2022-09-23T00:00:19.373Z,89.69
2022-09-23T00:01:19.445Z,89.79
2022-09-23T00:02:19.369Z,89.89
2022-09-23T00:03:19.321Z,89.89
2022-09-23T00:04:19.315Z,89.58
2022-09-23T00:05:19.315Z,90.10
2022-09-23T00:06:19.281Z,90.10
2022-09-23T00:07:19.276Z,89.79
2022-09-23T00:08:19.259Z,89.89
2022-09-23T00:09:19.255Z,90.00
2022-09-23T00:10:19.242Z,90.00
2022-09-23T00:11:20.248Z,89.79
2022-09-23T00:12:19.238Z,89.79
2022-09-23T00:13:19.214Z,90.00
2022-09-23T00:14:19.194Z,89.69
2022-09-23T00:15:19.196Z,89.89
2022-09-23T00:16:19.227Z,89.89
2022-09-23T00:17:19.159Z,90.10
2022-09-23T00:18:19.145Z,89.89
2022-09-23T00:19:19.140Z,90.14
2022-09-23T00:20:19.147Z,90.25
2022-09-23T00:21:19.121Z,89.69
2022-09-23T00:22:19.096Z,90.14
2022-09-23T00:23:19.098Z,89.89
2022-09-23T00:24:19.082Z,89.94
2022-09-23T00:25:19.100Z,89.62
2022-09-23T00:26:19.138Z,89.83
2022-09-23T00:27:19.058Z,90.04
2022-09-23T00:28:19.054Z,89.89
2022-09-23T00:29:19.072Z,89.94
2022-09-23T00:30:19.015Z,89.89
2022-09-23T00:31:19.089Z,90.25
2022-09-23T00:32:19.001Z,89.94
2022-09-23T00:33:19.000Z,90.04
2022-09-23T00:34:19.008Z,90.35
2022-09-23T00:35:18.972Z,90.49
2022-09-23T00:36:18.960Z,90.39
2022-09-23T00:37:18.949Z,90.39
2022-09-23T00:38:18.927Z,90.59
2022-09-23T00:39:19.938Z,90.70
2022-09-23T00:40:18.961Z,90.49
2022-09-23T00:41:18.908Z,90.59
2022-09-23T00:42:18.892Z,90.59
2022-09-23T00:43:18.886Z,90.59
2022-09-23T00:44:18.891Z,90.49
2022-09-23T00:45:18.856Z,90.59
2022-09-23T00:46:18.945Z,90.59
2022-09-23T00:47:18.842Z,90.70
2022-09-23T00:48:18.830Z,90.49
2022-09-23T00:49:18.821Z,90.70
2022-09-23T00:50:18.830Z,90.49
2022-09-23T00:51:18.845Z,90.49
2022-09-23T00:52:18.785Z,90.39
2022-09-23T00:53:18.767Z,90.91
2022-09-23T00:54:18.785Z,90.49
2022-09-23T00:55:18.737Z,90.49
2022-09-23T00:56:18.736Z,90.84
2022-09-23T00:57:18.725Z,90.84
2022-09-23T00:58:18.702Z,90.84
2022-09-23T00:59:18.699Z,90.80
2022-09-23T01:00:18.708Z,90.49
2022-09-23T01:01:18.713Z,90.74
2022-09-23T01:02:18.702Z,90.74
2022-09-23T01:03:18.658Z,90.74
2022-09-23T01:04:18.642Z,90.84
2022-09-23T01:05:18.646Z,90.84
2022-09-23T01:06:50.519Z,90.74
2022-09-23T01:07:18.609Z,90.53
2022-09-23T01:08:18.595Z,90.74
2022-09-23T01:09:18.587Z,90.64
2022-09-23T01:10:18.591Z,90.53
2022-09-23T01:11:18.563Z,90.74
2022-09-23T01:12:18.550Z,90.84
2022-09-23T01:13:18.530Z,90.64
2022-09-23T01:14:18.522Z,90.64
2022-09-23T01:15:18.545Z,90.84
2022-09-23T01:16:18.578Z,90.64
2022-09-23T01:17:18.496Z,90.74
2022-09-23T01:18:18.481Z,90.74
2022-09-23T01:19:18.481Z,90.43
2022-09-23T01:20:18.484Z,90.64
2022-09-23T01:21:18.448Z,90.84
2022-09-23T01:22:18.437Z,90.58
2022-09-23T01:23:18.426Z,90.68
2022-09-23T01:24:18.428Z,90.53
2022-09-23T01:25:18.417Z,90.68
2022-09-23T01:26:18.388Z,90.95
2022-09-23T01:27:18.380Z,90.99
2022-09-23T01:28:18.371Z,91.09
2022-09-23T01:29:18.352Z,90.74
2022-09-23T01:30:18.366Z,91.09
2022-09-23T01:31:18.369Z,90.78
2022-09-23T01:32:18.319Z,90.74
2022-09-23T01:33:18.309Z,90.47
2022-09-23T01:34:18.298Z,91.20
2022-09-23T01:35:18.304Z,90.89
2022-09-23T01:36:18.278Z,90.89
2022-09-23T01:37:18.263Z,90.68
2022-09-23T01:38:18.270Z,91.30
2022-09-23T01:39:18.251Z,90.89
2022-09-23T01:40:18.295Z,90.68
2022-09-23T01:41:18.219Z,90.99
2022-09-23T01:42:18.209Z,90.58
2022-09-23T01:43:18.201Z,90.47
2022-09-23T01:44:18.187Z,90.68
2022-09-23T01:45:18.196Z,91.30
2022-09-23T01:46:18.165Z,91.09
2022-09-23T01:47:18.145Z,90.72
2022-09-23T01:48:18.228Z,90.52
2022-09-23T01:49:18.128Z,90.89
2022-09-23T01:50:18.132Z,90.78
2022-09-23T01:51:18.100Z,90.72
2022-09-23T01:52:18.090Z,90.93
2022-09-23T01:53:18.079Z,90.83
2022-09-23T01:54:18.068Z,90.83
2022-09-23T01:55:18.082Z,90.83
2022-09-23T01:56:18.050Z,91.03
2022-09-23T01:57:18.040Z,90.93
2022-09-23T01:58:18.022Z,91.86
2022-09-23T01:59:18.033Z,91.96
2022-09-23T02:00:17.999Z,91.86
2022-09-23T02:01:18.070Z,91.75
2022-09-23T02:02:18.036Z,91.86
2022-09-23T02:03:17.970Z,91.96
2022-09-23T02:04:17.983Z,91.65
2022-09-23T02:05:17.945Z,91.86
2022-09-23T02:06:18.942Z,91.96
2022-09-23T02:07:17.925Z,92.00
2022-09-23T02:08:17.915Z,92.17
2022-09-23T02:09:17.917Z,91.69
2022-09-23T02:10:17.910Z,91.59
2022-09-23T02:11:17.872Z,91.90
2022-09-23T02:12:18.868Z,91.59
2022-09-23T02:13:17.855Z,91.80
2022-09-23T02:14:17.850Z,91.69
2022-09-23T02:15:17.856Z,91.69
2022-09-23T02:16:17.886Z,91.49
2022-09-23T02:17:17.801Z,91.69
2022-09-23T02:18:17.810Z,91.74
2022-09-23T02:19:17.812Z,91.80
2022-09-23T02:20:17.798Z,91.80
2022-09-23T02:21:17.767Z,91.80
2022-09-23T02:22:17.761Z,91.59
2022-09-23T02:23:17.755Z,91.38
2022-09-23T02:24:17.730Z,91.59
2022-09-23T02:25:17.745Z,91.53
2022-09-23T02:26:17.726Z,91.59
2022-09-23T02:27:17.705Z,91.49
2022-09-23T02:28:17.691Z,91.49
2022-09-23T02:29:17.683Z,91.38
2022-09-23T02:30:17.681Z,91.38
2022-09-23T02:31:17.659Z,91.17
2022-09-23T02:32:17.646Z,91.22
2022-09-23T02:33:17.638Z,91.53
2022-09-23T02:34:17.636Z,91.53
2022-09-23T02:35:17.641Z,92.25
2022-09-23T02:36:17.591Z,92.40
2022-09-23T02:37:17.595Z,91.84
2022-09-23T02:38:17.585Z,92.05
2022-09-23T02:39:17.573Z,91.84
2022-09-23T02:40:17.599Z,91.99
2022-09-23T02:41:17.561Z,91.94
2022-09-23T02:42:17.542Z,92.25
2022-09-23T02:43:17.526Z,92.40
2022-09-23T02:44:17.515Z,92.15
2022-09-23T02:45:17.528Z,92.25
2022-09-23T02:46:17.558Z,92.57
2022-09-23T02:47:17.480Z,92.50
2022-09-23T02:48:17.471Z,92.46
2022-09-23T02:49:17.515Z,92.81
2022-09-23T02:50:17.476Z,92.57
2022-09-23T02:51:17.442Z,92.67
2022-09-23T02:52:17.446Z,93.39
2022-09-23T02:53:17.419Z,93.49
2022-09-23T02:54:17.408Z,93.39
2022-09-23T02:55:17.419Z,93.49
2022-09-23T02:56:17.397Z,92.57
2022-09-23T02:57:17.379Z,92.67
2022-09-23T02:58:17.368Z,93.12
2022-09-23T02:59:17.356Z,92.77
2022-09-23T03:00:17.357Z,92.67
2022-09-23T03:01:17.425Z,93.43
2022-09-23T03:02:17.439Z,93.12
2022-09-23T03:03:17.317Z,92.46
2022-09-23T03:04:17.296Z,92.77
2022-09-23T03:05:17.314Z,92.97
2022-09-23T03:06:17.280Z,92.97
2022-09-23T03:07:17.270Z,92.87
2022-09-23T03:08:17.265Z,93.08
2022-09-23T03:09:17.246Z,93.08
2022-09-23T03:10:17.252Z,92.87
2022-09-23T03:11:17.238Z,93.08
2022-09-23T03:12:17.220Z,92.87
2022-09-23T03:13:17.212Z,92.77
2022-09-23T03:14:17.206Z,92.97
2022-09-23T03:15:17.203Z,92.87
2022-09-23T03:16:17.199Z,92.81
2022-09-23T03:17:17.161Z,93.12
2022-09-23T03:18:17.156Z,92.67
2022-09-23T03:19:17.150Z,92.91
2022-09-23T03:20:17.164Z,93.23
2022-09-23T03:21:17.125Z,92.91
2022-09-23T03:22:17.121Z,93.08
2022-09-23T03:23:17.108Z,93.12
2022-09-23T03:24:17.087Z,93.08
2022-09-23T03:25:17.106Z,93.12
2022-09-23T03:26:17.076Z,92.77
2022-09-23T03:27:17.064Z,93.02
2022-09-23T03:28:17.043Z,93.33
2022-09-23T03:29:17.044Z,92.61
2022-09-23T03:30:17.083Z,92.81
2022-09-23T03:31:17.058Z,93.85
2022-09-23T03:32:17.025Z,93.49
2022-09-23T03:33:17.001Z,93.49
2022-09-23T03:34:17.001Z,93.33
2022-09-23T03:35:17.005Z,93.54
2022-09-23T03:36:16.960Z,93.23
2022-09-23T03:37:16.950Z,93.33
2022-09-23T03:38:16.952Z,93.60
2022-09-23T03:39:16.940Z,93.23
2022-09-23T03:40:16.968Z,93.29
2022-09-23T03:41:16.913Z,93.33
2022-09-23T03:42:17.020Z,93.43
2022-09-23T03:43:16.889Z,93.18
2022-09-23T03:44:16.877Z,93.43
2022-09-23T03:45:16.879Z,93.23
2022-09-23T03:46:16.946Z,93.43
2022-09-23T03:47:16.844Z,93.54
2022-09-23T03:48:16.822Z,93.33
2022-09-23T03:49:16.819Z,93.54
2022-09-23T03:50:16.829Z,93.33
2022-09-23T03:51:16.814Z,93.23
2022-09-23T03:52:16.779Z,93.33
2022-09-23T03:53:16.774Z,93.33
2022-09-23T03:54:16.759Z,93.64
2022-09-23T03:55:16.767Z,93.33
2022-09-23T03:56:16.743Z,93.12
2022-09-23T03:57:16.735Z,93.12
2022-09-23T03:58:16.746Z,93.23
2022-09-23T03:59:16.719Z,93.64
2022-09-23T04:00:16.721Z,93.64
2022-09-23T04:01:16.761Z,94.16
2022-09-23T04:02:16.786Z,94.41
2022-09-23T04:03:16.670Z,94.37
2022-09-23T04:04:16.662Z,94.37
2022-09-23T04:05:16.669Z,94.26
2022-09-23T04:06:16.642Z,94.98
2022-09-23T04:07:16.637Z,95.14
2022-09-23T04:08:16.623Z,95.19
2022-09-23T04:09:16.619Z,94.89
2022-09-23T04:10:16.625Z,95.19
2022-09-23T04:11:16.595Z,95.19
2022-09-23T04:12:16.588Z,95.03
2022-09-23T04:13:16.575Z,95.09
2022-09-23T04:14:16.567Z,95.09
2022-09-23T04:15:16.574Z,95.19
2022-09-23T04:16:16.625Z,95.09
2022-09-23T04:17:16.542Z,94.89
2022-09-23T04:18:16.524Z,95.14
2022-09-23T04:19:16.519Z,94.93
2022-09-23T04:20:17.516Z,94.93
2022-09-23T04:21:16.484Z,94.93
2022-09-23T04:22:16.480Z,94.78
2022-09-23T04:23:16.477Z,94.89
2022-09-23T04:24:16.460Z,95.24
2022-09-23T04:25:16.463Z,95.24
2022-09-23T04:26:16.439Z,95.09
2022-09-23T04:27:16.424Z,95.19
2022-09-23T04:28:16.413Z,94.89
2022-09-23T04:29:16.396Z,95.03
2022-09-23T04:30:16.423Z,94.89
2022-09-23T04:31:16.410Z,95.09
2022-09-23T04:32:16.370Z,95.09
2022-09-23T04:33:16.355Z,95.09
2022-09-23T04:34:16.356Z,94.78
2022-09-23T04:35:16.355Z,95.19
2022-09-23T04:36:16.330Z,94.78
2022-09-23T04:37:16.321Z,95.03
2022-09-23T04:38:16.306Z,94.72
2022-09-23T04:39:16.290Z,94.72
2022-09-23T04:40:16.326Z,94.82
2022-09-23T04:41:16.299Z,94.72
2022-09-23T04:42:16.262Z,94.72
2022-09-23T04:43:16.246Z,94.89
2022-09-23T04:44:16.245Z,94.82
2022-09-23T04:45:16.230Z,94.68
2022-09-23T04:46:16.362Z,95.14
2022-09-23T04:47:16.204Z,95.34
2022-09-23T04:48:16.202Z,94.72
2022-09-23T04:49:16.194Z,94.72
2022-09-23T04:50:16.186Z,94.68
2022-09-23T04:51:16.192Z,94.82
2022-09-23T04:52:16.156Z,95.03
2022-09-23T04:53:16.157Z,94.72
2022-09-23T04:54:16.141Z,94.72
2022-09-23T04:55:16.132Z,94.72
2022-09-23T04:56:16.138Z,94.72
2022-09-23T04:57:16.114Z,94.89
2022-09-23T04:58:16.097Z,94.62
2022-09-23T04:59:16.086Z,94.82
2022-09-23T05:00:16.078Z,94.78
2022-09-23T05:01:16.170Z,94.98
2022-09-23T05:02:16.104Z,94.72
2022-09-23T05:03:16.063Z,95.34
2022-09-23T05:04:16.039Z,95.09
2022-09-23T05:05:16.033Z,94.47
2022-09-23T05:06:16.045Z,94.68
2022-09-23T05:07:16.014Z,94.68
2022-09-23T05:08:16.004Z,94.68
2022-09-23T05:09:15.992Z,94.57
2022-09-23T05:10:16.001Z,94.37
2022-09-23T05:11:15.961Z,94.37
2022-09-23T05:12:15.955Z,94.37
2022-09-23T05:13:15.953Z,94.78
2022-09-23T05:14:15.938Z,94.89
2022-09-23T05:15:15.938Z,94.98
2022-09-23T05:16:15.997Z,94.89
2022-09-23T05:17:15.900Z,94.98
2022-09-23T05:18:20.181Z,94.98
2022-09-23T05:19:16.889Z,94.89
2022-09-23T05:20:15.892Z,94.89
2022-09-23T05:21:15.855Z,94.89
2022-09-23T05:22:15.883Z,95.19
2022-09-23T05:23:15.846Z,94.98
2022-09-23T05:24:15.832Z,94.98
2022-09-23T05:25:15.855Z,94.89
2022-09-23T05:26:15.810Z,94.37
2022-09-23T05:27:15.799Z,94.63
2022-09-23T05:28:15.794Z,94.68
2022-09-23T05:29:15.768Z,94.62
2022-09-23T05:30:15.775Z,94.62
2022-09-23T05:31:19.633Z,94.51
2022-09-23T05:32:15.735Z,94.72
2022-09-23T05:33:15.729Z,94.68
2022-09-23T05:34:15.715Z,94.68
2022-09-23T05:35:15.727Z,94.89
2022-09-23T05:36:15.698Z,94.89
2022-09-23T05:37:15.692Z,94.68
2022-09-23T05:38:15.677Z,94.68
2022-09-23T05:39:15.672Z,94.84
2022-09-23T05:40:15.681Z,94.69
2022-09-23T05:41:15.650Z,94.53
2022-09-23T05:42:15.641Z,94.79
2022-09-23T05:43:15.638Z,94.48
2022-09-23T05:44:15.617Z,94.69
2022-09-23T05:45:15.624Z,94.54
2022-09-23T05:46:15.605Z,94.65
2022-09-23T05:47:15.576Z,94.75
2022-09-23T05:48:15.565Z,94.75
2022-09-23T05:49:15.573Z,94.44
2022-09-23T05:50:15.564Z,94.54
2022-09-23T05:51:15.530Z,94.54
2022-09-23T05:52:15.521Z,94.54
2022-09-23T05:53:15.527Z,94.50
2022-09-23T05:54:15.504Z,94.40
2022-09-23T05:55:15.518Z,94.92
2022-09-23T05:56:15.488Z,94.71
2022-09-23T05:57:15.494Z,94.35
2022-09-23T05:58:15.470Z,94.25
2022-09-23T05:59:15.452Z,94.25
2022-09-23T06:00:15.467Z,94.25
2022-09-23T06:01:15.446Z,94.62
2022-09-23T06:02:15.468Z,94.62
2022-09-23T06:03:15.500Z,94.31
2022-09-23T06:04:15.391Z,94.93
2022-09-23T06:05:15.401Z,94.62
2022-09-23T06:06:15.373Z,94.72
2022-09-23T06:07:15.363Z,94.78
2022-09-23T06:08:15.354Z,94.52
2022-09-23T06:09:15.337Z,94.57
2022-09-23T06:10:15.343Z,94.89
2022-09-23T06:11:15.318Z,94.64
2022-09-23T06:12:15.300Z,94.32
2022-09-23T06:13:15.290Z,93.71
2022-09-23T06:14:15.279Z,93.91
2022-09-23T06:15:15.282Z,93.65
2022-09-23T06:16:15.303Z,93.50
2022-09-23T06:17:15.248Z,93.40
2022-09-23T06:18:15.237Z,93.35
2022-09-23T06:19:15.222Z,93.46
2022-09-23T06:20:15.233Z,93.35
2022-09-23T06:21:15.258Z,93.21
2022-09-23T06:22:15.192Z,93.21
2022-09-23T06:23:15.187Z,93.11
2022-09-23T06:24:20.472Z,93.21
2022-09-23T06:25:17.162Z,92.59
2022-09-23T06:26:15.139Z,92.86
2022-09-23T06:27:15.139Z,92.65
2022-09-23T06:28:15.116Z,92.86
2022-09-23T06:29:15.111Z,92.24
2022-09-23T06:30:15.130Z,92.20
2022-09-23T06:31:15.118Z,92.65
2022-09-23T06:32:15.077Z,92.20
2022-09-23T06:33:15.473Z,92.82
2022-09-23T06:34:15.187Z,92.71
2022-09-23T06:35:25.148Z,93.02
2022-09-23T06:36:33.552Z,92.05
2022-09-23T06:37:20.229Z,91.74
2022-09-23T06:38:16.024Z,91.85
2022-09-23T06:39:15.043Z,91.33
2022-09-23T06:40:15.036Z,91.23
2022-09-23T06:41:14.984Z,91.39
2022-09-23T06:42:14.970Z,90.92
2022-09-23T06:43:14.983Z,91.19
2022-09-23T06:44:14.968Z,90.67
2022-09-23T06:45:14.970Z,90.88
2022-09-23T06:46:15.029Z,91.08
2022-09-23T06:47:14.922Z,91.19
2022-09-23T06:48:14.925Z,91.45
2022-09-23T06:49:14.899Z,91.55
2022-09-23T06:50:14.920Z,90.73
2022-09-23T06:51:14.885Z,90.01
2022-09-23T06:52:14.875Z,90.06
2022-09-23T06:53:14.868Z,90.01
2022-09-23T06:54:14.847Z,90.12
2022-09-23T06:55:14.863Z,90.28
2022-09-23T06:56:14.833Z,89.97
2022-09-23T06:57:14.820Z,90.38
2022-09-23T06:58:14.811Z,89.97
2022-09-23T06:59:14.805Z,89.87
2022-09-23T07:00:14.812Z,90.18
2022-09-23T07:01:14.805Z,89.66
2022-09-23T07:02:14.829Z,89.46
2022-09-23T07:03:14.761Z,89.25
2022-09-23T07:04:14.753Z,88.57
2022-09-23T07:05:14.768Z,88.84
2022-09-23T07:06:14.733Z,88.43
2022-09-23T07:07:14.724Z,88.27
2022-09-23T07:08:14.710Z,87.96
2022-09-23T07:09:14.703Z,87.24
2022-09-23T07:10:46.612Z,87.75
2022-09-23T07:11:14.689Z,87.71
2022-09-23T07:12:14.671Z,88.02
2022-09-23T07:13:16.398Z,87.57
2022-09-23T07:14:14.646Z,87.05
2022-09-23T07:15:14.662Z,87.30
2022-09-23T07:16:14.722Z,87.16
2022-09-23T07:17:14.609Z,86.95
2022-09-23T07:18:14.607Z,86.44
2022-09-23T07:19:14.601Z,86.58
2022-09-23T07:20:14.607Z,86.13
2022-09-23T07:21:14.568Z,86.38
2022-09-23T07:22:14.567Z,85.93
2022-09-23T07:23:14.568Z,85.66
2022-09-23T07:24:14.544Z,86.03
2022-09-23T07:25:14.555Z,85.86
2022-09-23T07:26:14.529Z,85.62
2022-09-23T07:27:14.511Z,85.72
2022-09-23T07:28:14.503Z,85.52
2022-09-23T07:29:14.488Z,85.41
2022-09-23T07:30:23.177Z,85.47
2022-09-23T07:31:21.466Z,85.17
2022-09-23T07:32:15.556Z,85.23
2022-09-23T07:33:29.449Z,85.33
2022-09-23T07:34:16.454Z,85.13
2022-09-23T07:35:14.521Z,85.13
2022-09-23T07:36:14.425Z,85.54
2022-09-23T07:37:14.413Z,84.72
2022-09-23T07:38:14.409Z,84.27
2022-09-23T07:39:14.393Z,83.65
2022-09-23T07:40:14.421Z,83.69
2022-09-23T07:41:14.363Z,83.45
2022-09-23T07:42:14.371Z,82.67
2022-09-23T07:43:14.362Z,83.39
2022-09-23T07:44:14.350Z,82.32
2022-09-23T07:45:14.348Z,82.73
2022-09-23T07:46:14.407Z,82.93
2022-09-23T07:47:14.311Z,82.83
2022-09-23T07:48:14.345Z,82.90
2022-09-23T07:49:14.299Z,82.55
2022-09-23T07:50:14.312Z,82.24
2022-09-23T07:51:14.278Z,81.84
2022-09-23T07:52:14.282Z,82.00
2022-09-23T07:53:14.261Z,81.24
2022-09-23T07:54:14.256Z,81.04
2022-09-23T07:55:17.642Z,80.12
2022-09-23T07:56:16.229Z,80.02
2022-09-23T07:57:14.210Z,79.37
2022-09-23T07:58:14.218Z,78.96
2022-09-23T07:59:14.204Z,79.06
2022-09-23T08:00:14.257Z,78.55
2022-09-23T08:01:14.500Z,78.41
2022-09-23T08:02:14.202Z,77.90
2022-09-23T08:03:14.235Z,77.66
2022-09-23T08:04:15.149Z,77.66
2022-09-23T08:05:14.155Z,77.25
2022-09-23T08:06:14.131Z,76.90
2022-09-23T08:07:14.131Z,76.60
2022-09-23T08:08:14.131Z,75.99
2022-09-23T08:09:14.095Z,75.75
2022-09-23T08:10:14.117Z,75.34
2022-09-23T08:11:14.085Z,75.41
2022-09-23T08:12:16.180Z,74.59
2022-09-23T08:13:15.055Z,73.47
2022-09-23T08:14:14.047Z,73.81
2022-09-23T08:15:14.052Z,75.41
2022-09-23T08:16:14.060Z,74.96
2022-09-23T08:17:14.019Z,73.84
2022-09-23T08:18:13.999Z,73.64
2022-09-23T08:19:13.998Z,73.03
2022-09-23T08:20:13.994Z,72.92
2022-09-23T08:21:13.977Z,72.82
2022-09-23T08:22:13.963Z,72.72
2022-09-23T08:23:13.964Z,72.79
2022-09-23T08:24:13.951Z,71.87
2022-09-23T08:25:14.011Z,71.67
2022-09-23T08:26:20.926Z,72.08
2022-09-23T08:27:15.917Z,72.08
2022-09-23T08:28:13.906Z,71.46
2022-09-23T08:29:13.901Z,71.67
2022-09-23T08:30:14.007Z,72.04
2022-09-23T08:31:13.907Z,71.91
2022-09-23T08:32:13.856Z,71.70
2022-09-23T08:33:13.844Z,71.39
2022-09-23T08:34:13.845Z,71.09
2022-09-23T08:35:13.854Z,71.36
2022-09-23T08:36:13.826Z,70.04
2022-09-23T08:37:13.815Z,69.53
2022-09-23T08:38:13.800Z,69.02
2022-09-23T08:39:13.855Z,69.12
2022-09-23T08:40:13.815Z,70.01
2022-09-23T08:41:14.768Z,70.01
2022-09-23T08:42:13.767Z,68.51
2022-09-23T08:43:13.754Z,68.41
2022-09-23T08:44:13.743Z,68.48
2022-09-23T08:45:13.737Z,68.79
2022-09-23T08:46:13.743Z,68.07
2022-09-23T08:47:13.707Z,67.57
2022-09-23T08:48:13.727Z,67.97
2022-09-23T08:49:13.689Z,68.48
2022-09-23T08:50:13.703Z,68.18
2022-09-23T08:51:13.668Z,68.04
2022-09-23T08:52:13.657Z,68.04
2022-09-23T08:53:13.652Z,67.53
2022-09-23T08:54:13.638Z,67.43
2022-09-23T08:55:13.656Z,67.50
2022-09-23T08:56:13.620Z,67.33
2022-09-23T08:57:13.596Z,66.79
2022-09-23T08:58:24.876Z,67.40
2022-09-23T08:59:15.597Z,66.58
2022-09-23T09:00:13.605Z,65.47
2022-09-23T09:01:13.626Z,67.10
2022-09-23T09:02:13.592Z,66.38
2022-09-23T09:03:13.550Z,65.47
2022-09-23T09:04:13.537Z,65.47
2022-09-23T09:05:13.550Z,66.55
2022-09-23T09:06:13.541Z,66.55
2022-09-23T09:07:43.008Z,65.64
2022-09-23T09:08:15.492Z,66.25
2022-09-23T09:09:14.486Z,65.54
2022-09-23T09:10:13.505Z,65.33
2022-09-23T09:11:13.470Z,65.94
2022-09-23T09:12:13.457Z,66.05
2022-09-23T09:13:13.444Z,66.96
2022-09-23T09:14:13.443Z,67.03
2022-09-23T09:15:13.446Z,66.05
2022-09-23T09:16:13.474Z,66.58
2022-09-23T09:17:13.403Z,66.69
2022-09-23T09:18:13.391Z,67.10
2022-09-23T09:19:13.389Z,66.99
2022-09-23T09:20:13.390Z,67.19
2022-09-23T09:21:13.358Z,66.89
2022-09-23T09:22:13.362Z,66.86
2022-09-23T09:23:13.345Z,66.76
2022-09-23T09:24:13.338Z,66.38
2022-09-23T09:25:14.451Z,65.64
2022-09-23T09:26:13.315Z,65.54
2022-09-23T09:27:13.307Z,66.22
2022-09-23T09:28:13.297Z,66.86
2022-09-23T09:29:33.805Z,67.03
2022-09-23T09:30:15.300Z,66.52
2022-09-23T09:31:13.290Z,66.49
2022-09-23T09:32:13.255Z,66.19
2022-09-23T09:33:13.239Z,66.66
2022-09-23T09:34:13.236Z,66.05
2022-09-23T09:35:13.246Z,63.72
2022-09-23T09:36:13.211Z,63.69
2022-09-23T09:37:13.202Z,63.62
2022-09-23T09:38:13.196Z,63.59
2022-09-23T09:39:13.184Z,64.20
2022-09-23T09:40:13.231Z,63.79
2022-09-23T09:41:13.156Z,63.39
2022-09-23T09:42:13.152Z,64.67
2022-09-23T09:43:13.141Z,65.18
2022-09-23T09:44:13.132Z,63.56
2022-09-23T09:45:13.139Z,64.10
2022-09-23T09:46:13.151Z,65.34
2022-09-23T09:47:13.099Z,65.04
2022-09-23T09:48:13.088Z,65.34
2022-09-23T09:49:13.071Z,66.05
2022-09-23T09:50:13.083Z,64.30
2022-09-23T09:51:13.054Z,63.89
2022-09-23T09:52:13.048Z,63.59
2022-09-23T09:53:12.972Z,63.18
2022-09-23T09:54:12.977Z,63.08
2022-09-23T09:55:12.991Z,64.53
2022-09-23T09:56:12.955Z,65.04
2022-09-23T09:57:12.940Z,65.31
2022-09-23T09:58:12.932Z,65.39
2022-09-23T09:59:12.928Z,65.18
2022-09-23T10:00:12.930Z,64.34
2022-09-23T10:01:12.949Z,64.24
2022-09-23T10:02:12.898Z,63.40
2022-09-23T10:03:12.875Z,61.88
2022-09-23T10:04:12.923Z,61.37
2022-09-23T10:05:12.887Z,61.27
2022-09-23T10:06:12.855Z,61.24
2022-09-23T10:07:12.841Z,61.65
2022-09-23T10:08:12.832Z,61.95
2022-09-23T10:09:12.832Z,61.01
2022-09-23T10:10:22.430Z,59.70
2022-09-23T10:11:14.806Z,59.22
2022-09-23T10:12:12.786Z,59.12
2022-09-23T10:13:12.778Z,60.53
2022-09-23T10:14:12.771Z,60.84
2022-09-23T10:15:12.781Z,59.72
2022-09-23T10:16:12.743Z,60.53
2022-09-23T10:17:12.745Z,60.43
2022-09-23T10:18:12.730Z,60.53
2022-09-23T10:19:12.718Z,59.92
2022-09-23T10:20:12.730Z,60.71
2022-09-23T10:21:12.701Z,59.39
2022-09-23T10:22:12.694Z,60.91
2022-09-23T10:23:12.677Z,60.81
2022-09-23T10:24:12.667Z,60.94
2022-09-23T10:25:12.680Z,60.81
2022-09-23T10:26:12.654Z,60.68
2022-09-23T10:27:12.648Z,60.48
2022-09-23T10:28:12.630Z,60.45
2022-09-23T10:29:12.617Z,59.23
2022-09-23T10:30:12.634Z,58.60
2022-09-23T10:31:12.684Z,58.20
2022-09-23T10:32:12.582Z,59.14
2022-09-23T10:33:12.576Z,59.84
2022-09-23T10:34:12.566Z,58.60
2022-09-23T10:35:12.573Z,58.09
2022-09-23T10:36:12.544Z,58.37
2022-09-23T10:37:12.579Z,57.89
2022-09-23T10:38:12.530Z,58.50
2022-09-23T10:39:12.522Z,56.18
2022-09-23T10:40:12.557Z,57.79
2022-09-23T10:41:12.517Z,57.26
2022-09-23T10:42:12.501Z,57.69
2022-09-23T10:43:12.485Z,56.48
2022-09-23T10:44:12.477Z,57.29
2022-09-23T10:45:12.541Z,57.06
2022-09-23T10:46:12.571Z,55.74
2022-09-23T10:47:12.454Z,56.15
2022-09-23T10:48:12.434Z,54.83
2022-09-23T10:49:12.443Z,55.11
2022-09-23T10:50:12.437Z,54.99
2022-09-23T10:51:12.410Z,55.09
2022-09-23T10:52:12.401Z,55.11
2022-09-23T10:53:12.389Z,55.62
2022-09-23T10:54:12.389Z,55.19
2022-09-23T10:55:12.389Z,55.49
2022-09-23T10:56:12.351Z,54.68
2022-09-23T10:57:12.343Z,54.79
2022-09-23T10:58:12.355Z,54.86
2022-09-23T10:59:12.336Z,54.46
2022-09-23T11:00:12.377Z,54.96
2022-09-23T11:01:12.405Z,54.25
2022-09-23T11:02:12.309Z,54.46
2022-09-23T11:03:12.292Z,53.14
2022-09-23T11:04:12.618Z,53.12
2022-09-23T11:05:12.294Z,54.13
2022-09-23T11:06:12.276Z,52.09
2022-09-23T11:07:12.253Z,52.39
2022-09-23T11:08:12.241Z,52.11
2022-09-23T11:09:12.238Z,52.31
2022-09-23T11:10:23.265Z,51.40
2022-09-23T11:11:14.204Z,51.53
2022-09-23T11:12:12.205Z,51.23
2022-09-23T11:13:12.207Z,51.61
2022-09-23T11:14:12.193Z,52.31
2022-09-23T11:15:12.228Z,51.61
2022-09-23T11:16:12.244Z,51.79
2022-09-23T11:17:12.216Z,52.09
2022-09-23T11:18:12.146Z,51.16
2022-09-23T11:19:12.138Z,51.03
2022-09-23T11:20:12.152Z,50.53
2022-09-23T11:21:12.118Z,49.32
2022-09-23T11:22:12.106Z,49.42
2022-09-23T11:23:12.088Z,49.12
2022-09-23T11:24:12.097Z,50.31
2022-09-23T11:25:12.092Z,49.93
2022-09-23T11:26:12.054Z,49.93
2022-09-23T11:27:12.040Z,48.92
2022-09-23T11:28:12.060Z,49.52
2022-09-23T11:29:12.028Z,50.23
2022-09-23T11:30:12.167Z,49.10
2022-09-23T11:31:12.090Z,49.22
2022-09-23T11:32:12.002Z,49.35
2022-09-23T11:33:11.999Z,49.75
2022-09-23T11:34:11.985Z,49.04
2022-09-23T11:35:11.996Z,50.76
2022-09-23T11:36:11.964Z,50.45
2022-09-23T11:37:11.956Z,50.43
2022-09-23T11:38:11.950Z,50.73
2022-09-23T11:39:11.921Z,48.92
2022-09-23T11:40:12.010Z,47.59
2022-09-23T11:41:11.917Z,47.28
2022-09-23T11:42:11.912Z,48.29
2022-09-23T11:43:11.899Z,48.99
2022-09-23T11:44:11.888Z,48.49
2022-09-23T11:45:11.895Z,48.11
2022-09-23T11:46:11.934Z,49.32
2022-09-23T11:47:11.862Z,48.49
2022-09-23T11:48:11.851Z,48.90
2022-09-23T11:49:11.842Z,47.49
2022-09-23T11:50:11.892Z,47.11
2022-09-23T11:51:11.850Z,47.11
2022-09-23T11:52:11.815Z,46.73
2022-09-23T11:53:11.808Z,47.13
2022-09-23T11:54:11.793Z,48.84
2022-09-23T11:55:19.858Z,49.37
2022-09-23T11:56:13.107Z,47.35
2022-09-23T11:57:11.761Z,48.56
2022-09-23T11:58:21.906Z,49.16
2022-09-23T11:59:13.940Z,48.66
2022-09-23T12:00:11.805Z,48.54
2022-09-23T12:01:11.721Z,48.74
2022-09-23T12:02:19.679Z,49.24
2022-09-23T12:03:12.774Z,49.15
2022-09-23T12:04:19.601Z,48.92
2022-09-23T12:05:13.786Z,48.94
2022-09-23T12:06:11.672Z,51.18
2022-09-23T12:07:11.662Z,51.68
2022-09-23T12:08:11.655Z,51.66
2022-09-23T12:09:11.704Z,50.40
2022-09-23T12:10:11.706Z,49.57
2022-09-23T12:11:11.628Z,49.37
2022-09-23T12:12:11.688Z,48.67
2022-09-23T12:13:11.602Z,47.89
2022-09-23T12:14:11.677Z,47.59
2022-09-23T12:15:11.579Z,46.96
2022-09-23T12:16:11.617Z,47.36
2022-09-23T12:17:11.570Z,47.64
2022-09-23T12:18:11.563Z,47.02
2022-09-23T12:19:11.589Z,46.11
2022-09-23T12:20:11.663Z,46.41
2022-09-23T12:21:27.073Z,46.73
2022-09-23T12:22:13.517Z,46.72
2022-09-23T12:23:11.521Z,46.61
2022-09-23T12:24:14.003Z,46.81
2022-09-23T12:25:12.491Z,46.41
2022-09-23T12:26:11.487Z,46.41
2022-09-23T12:27:11.473Z,46.81
2022-09-23T12:28:11.468Z,46.61
2022-09-23T12:29:11.487Z,46.31
2022-09-23T12:30:11.495Z,46.34
2022-09-23T12:31:11.454Z,47.04
2022-09-23T12:32:11.422Z,47.52
2022-09-23T12:33:11.413Z,46.61
2022-09-23T12:34:11.406Z,46.01
2022-09-23T12:35:11.415Z,46.11
2022-09-23T12:36:11.382Z,44.93
2022-09-23T12:37:11.368Z,46.54
2022-09-23T12:38:11.362Z,46.61
2022-09-23T12:39:11.355Z,46.61
2022-09-23T12:40:11.448Z,47.22
2022-09-23T12:41:11.332Z,46.49
2022-09-23T12:42:11.333Z,46.69
2022-09-23T12:43:11.316Z,46.09
2022-09-23T12:44:11.305Z,46.59
2022-09-23T12:45:11.315Z,45.37
2022-09-23T12:46:11.332Z,44.38
2022-09-23T12:47:11.410Z,45.41
2022-09-23T12:48:11.264Z,44.91
2022-09-23T12:49:11.257Z,46.88
2022-09-23T12:50:15.688Z,48.34
2022-09-23T12:51:13.240Z,48.32
2022-09-23T12:52:11.260Z,47.41